KCNK/CNK METAR and TAF weather

Enter ICAO airport designator
Station Type Date Time Source
KCNK METAR 2019/02/20 06:55 UTC NOAA

KCNK 200655Z AUTO 00000KT 4SM UP BR OVC006 M05/M06 A2986 RMK AO2 UPB39 SLP131 P0000 T10501056


Station Type Date Time Source
KCNK Decoded METAR 2019/02/20 06:55 UTC NOAA

Concordia, Blosser Municipal Airport, KS, United States (KCNK) 39-33-05N 097-39-02W 447M
Feb 20, 2019 - 01:55 AM EST / 2019.02.20 0655 UTC
Wind: Calm:0
Visibility: 4 mile(s):0
Sky conditions: overcast
Weather: precipitation; mist
Precipitation last hour: A trace
Temperature: 23.0 F (-5.0 C)
Dew Point: 21.9 F (-5.6 C)
Relative Humidity: 95%
Pressure (altimeter): 29.86 in. Hg (1011 hPa)
ob: KCNK 200655Z AUTO 00000KT 4SM UP BR OVC006 M05/M06 A2986 RMK AO2 UPB39 SLP131 P0000 T10501056
cycle: 7

Station Type Date Time Source
KCNK TAF UTC NOAA

Error!


Example: see airport list